createdAt,value
2023-04-27T00:00:51.253Z,84.61
2023-04-27T00:01:51.310Z,84.51
2023-04-27T00:02:51.405Z,84.61
2023-04-27T00:03:51.318Z,84.86
2023-04-27T00:04:51.460Z,85.17
2023-04-27T00:05:51.318Z,85.44
2023-04-27T00:06:51.233Z,85.17
2023-04-27T00:07:51.214Z,85.17
2023-04-27T00:08:51.224Z,85.17
2023-04-27T00:09:51.185Z,85.17
2023-04-27T00:10:51.849Z,85.06
2023-04-27T00:11:51.205Z,85.27
2023-04-27T00:12:51.208Z,85.06
2023-04-27T00:13:51.165Z,85.38
2023-04-27T00:14:51.140Z,84.96
2023-04-27T00:15:51.171Z,85.58
2023-04-27T00:16:51.170Z,85.06
2023-04-27T00:17:51.907Z,85.48
2023-04-27T00:18:51.147Z,85.34
2023-04-27T00:19:51.122Z,85.27
2023-04-27T00:20:51.101Z,85.48
2023-04-27T00:21:51.100Z,84.96
2023-04-27T00:22:51.089Z,85.48
2023-04-27T00:23:51.100Z,85.58
2023-04-27T00:24:51.052Z,85.48
2023-04-27T00:25:51.065Z,85.48
2023-04-27T00:26:51.847Z,85.27
2023-04-27T00:27:51.035Z,85.17
2023-04-27T00:28:51.093Z,85.17
2023-04-27T00:29:51.030Z,84.65
2023-04-27T00:30:51.033Z,84.96
2023-04-27T00:31:51.074Z,84.55
2023-04-27T00:32:51.131Z,85.06
2023-04-27T00:33:51.007Z,85.06
2023-04-27T00:34:51.032Z,84.44
2023-04-27T00:35:50.973Z,84.55
2023-04-27T00:36:51.908Z,84.44
2023-04-27T00:37:51.015Z,84.55
2023-04-27T00:38:50.982Z,84.55
2023-04-27T00:39:50.967Z,84.44
2023-04-27T00:40:50.971Z,84.86
2023-04-27T00:41:50.926Z,84.13
2023-04-27T00:42:50.927Z,83.93
2023-04-27T00:43:50.962Z,84.23
2023-04-27T00:44:50.919Z,84.55
2023-04-27T00:45:50.968Z,84.75
2023-04-27T00:46:50.932Z,85.27
2023-04-27T00:47:50.935Z,85.44
2023-04-27T00:48:50.903Z,85.89
2023-04-27T00:49:50.934Z,85.55
2023-04-27T00:50:51.754Z,85.75
2023-04-27T00:51:50.912Z,86.17
2023-04-27T00:52:50.857Z,86.07
2023-04-27T00:53:50.846Z,85.75
2023-04-27T00:54:50.837Z,85.44
2023-04-27T00:55:50.854Z,85.24
2023-04-27T00:56:50.852Z,85.13
2023-04-27T00:57:50.853Z,85.13
2023-04-27T00:58:50.817Z,85.24
2023-04-27T00:59:50.844Z,85.17
2023-04-27T01:00:50.929Z,85.13
2023-04-27T01:01:50.842Z,85.24
2023-04-27T01:02:50.986Z,85.24
2023-04-27T01:03:50.945Z,85.34
2023-04-27T01:04:50.867Z,85.44
2023-04-27T01:05:50.775Z,85.06
2023-04-27T01:06:50.782Z,85.03
2023-04-27T01:07:50.751Z,85.34
2023-04-27T01:08:50.740Z,86.00
2023-04-27T01:09:50.742Z,86.00
2023-04-27T01:10:50.734Z,86.10
2023-04-27T01:11:50.744Z,86.41
2023-04-27T01:12:50.745Z,86.31
2023-04-27T01:13:50.716Z,86.41
2023-04-27T01:14:50.685Z,87.10
2023-04-27T01:15:50.686Z,87.24
2023-04-27T01:16:50.747Z,87.30
2023-04-27T01:17:50.719Z,86.68
2023-04-27T01:18:50.651Z,86.99
2023-04-27T01:19:50.647Z,87.10
2023-04-27T01:20:50.672Z,86.89
2023-04-27T01:21:50.650Z,87.20
2023-04-27T01:22:50.668Z,86.68
2023-04-27T01:23:50.635Z,86.79
2023-04-27T01:24:50.629Z,86.99
2023-04-27T01:25:50.624Z,86.99
2023-04-27T01:26:50.598Z,87.30
2023-04-27T01:27:51.396Z,86.68
2023-04-27T01:28:50.595Z,86.89
2023-04-27T01:29:50.603Z,86.68
2023-04-27T01:30:50.627Z,86.58
2023-04-27T01:31:50.558Z,86.23
2023-04-27T01:32:50.699Z,86.17
2023-04-27T01:33:50.538Z,86.02
2023-04-27T01:34:50.538Z,85.82
2023-04-27T01:35:50.557Z,86.17
2023-04-27T01:36:50.526Z,86.23
2023-04-27T01:37:50.534Z,85.19
2023-04-27T01:38:50.517Z,85.30
2023-04-27T01:39:50.541Z,85.19
2023-04-27T01:40:50.516Z,85.61
2023-04-27T01:41:50.495Z,85.30
2023-04-27T01:42:50.479Z,85.30
2023-04-27T01:43:51.202Z,85.40
2023-04-27T01:44:50.521Z,85.71
2023-04-27T01:45:50.486Z,85.92
2023-04-27T01:46:50.515Z,86.23
2023-04-27T01:47:50.490Z,85.09
2023-04-27T01:48:50.447Z,85.30
2023-04-27T01:49:50.451Z,85.26
2023-04-27T01:50:50.428Z,85.50
2023-04-27T01:51:50.436Z,85.09
2023-04-27T01:52:50.420Z,85.26
2023-04-27T01:53:50.929Z,85.26
2023-04-27T01:54:50.403Z,85.05
2023-04-27T01:55:50.395Z,84.84
2023-04-27T01:56:50.395Z,85.26
2023-04-27T01:57:50.369Z,85.05
2023-04-27T01:58:50.400Z,85.47
2023-04-27T01:59:50.387Z,85.36
2023-04-27T02:00:50.346Z,85.05
2023-04-27T02:01:50.380Z,85.36
2023-04-27T02:02:50.528Z,85.16
2023-04-27T02:03:51.119Z,84.95
2023-04-27T02:04:50.471Z,84.95
2023-04-27T02:05:50.392Z,85.16
2023-04-27T02:06:50.340Z,85.16
2023-04-27T02:07:50.303Z,84.95
2023-04-27T02:08:50.297Z,85.16
2023-04-27T02:09:50.290Z,85.16
2023-04-27T02:10:50.301Z,85.05
2023-04-27T02:11:50.283Z,85.05
2023-04-27T02:12:51.268Z,85.05
2023-04-27T02:13:50.314Z,85.05
2023-04-27T02:14:50.241Z,85.92
2023-04-27T02:15:50.308Z,85.82
2023-04-27T02:16:50.226Z,87.02
2023-04-27T02:17:50.268Z,87.33
2023-04-27T02:18:50.244Z,86.85
2023-04-27T02:19:50.262Z,87.27
2023-04-27T02:20:50.235Z,87.06
2023-04-27T02:21:50.206Z,86.96
2023-04-27T02:22:50.190Z,87.06
2023-04-27T02:23:50.179Z,87.06
2023-04-27T02:24:50.184Z,86.85
2023-04-27T02:25:50.199Z,87.06
2023-04-27T02:26:50.167Z,87.06
2023-04-27T02:27:50.179Z,87.06
2023-04-27T02:28:50.220Z,87.06
2023-04-27T02:29:50.160Z,87.06
2023-04-27T02:30:50.132Z,87.16
2023-04-27T02:31:50.159Z,87.16
2023-04-27T02:32:50.191Z,86.96
2023-04-27T02:33:50.105Z,86.54
2023-04-27T02:34:50.105Z,87.06
2023-04-27T02:35:50.086Z,86.65
2023-04-27T02:36:50.089Z,87.64
2023-04-27T02:37:50.113Z,87.68
2023-04-27T02:38:50.113Z,87.78
2023-04-27T02:39:50.068Z,87.06
2023-04-27T02:40:50.046Z,86.96
2023-04-27T02:41:50.052Z,87.68
2023-04-27T02:42:50.056Z,87.37
2023-04-27T02:43:50.055Z,87.06
2023-04-27T02:44:50.039Z,87.57
2023-04-27T02:45:50.020Z,87.68
2023-04-27T02:46:50.068Z,87.47
2023-04-27T02:47:51.033Z,88.13
2023-04-27T02:48:50.014Z,87.93
2023-04-27T02:49:49.993Z,88.03
2023-04-27T02:50:49.983Z,88.13
2023-04-27T02:51:49.987Z,88.45
2023-04-27T02:52:49.969Z,87.82
2023-04-27T02:53:49.964Z,87.93
2023-04-27T02:54:49.962Z,87.20
2023-04-27T02:55:49.933Z,87.72
2023-04-27T02:56:49.922Z,87.41
2023-04-27T02:57:49.958Z,87.93
2023-04-27T02:58:49.924Z,87.82
2023-04-27T02:59:49.900Z,87.62
2023-04-27T03:00:49.951Z,86.89
2023-04-27T03:01:49.946Z,87.51
2023-04-27T03:02:50.007Z,87.41
2023-04-27T03:03:49.965Z,87.51
2023-04-27T03:04:49.959Z,87.57
2023-04-27T03:05:49.908Z,87.62
2023-04-27T03:06:49.863Z,87.10
2023-04-27T03:07:49.857Z,87.41
2023-04-27T03:08:49.908Z,87.10
2023-04-27T03:09:49.929Z,87.68
2023-04-27T03:10:49.850Z,87.78
2023-04-27T03:11:49.802Z,87.72
2023-04-27T03:12:49.836Z,87.78
2023-04-27T03:13:49.812Z,87.57
2023-04-27T03:14:49.812Z,87.88
2023-04-27T03:15:49.804Z,87.37
2023-04-27T03:16:49.849Z,87.62
2023-04-27T03:17:49.806Z,87.57
2023-04-27T03:18:49.772Z,87.88
2023-04-27T03:19:49.751Z,87.72
2023-04-27T03:20:49.785Z,87.72
2023-04-27T03:21:49.757Z,87.57
2023-04-27T03:22:49.735Z,87.62
2023-04-27T03:23:49.758Z,87.72
2023-04-27T03:24:49.720Z,88.45
2023-04-27T03:25:49.709Z,88.13
2023-04-27T03:26:49.731Z,88.03
2023-04-27T03:27:49.721Z,88.34
2023-04-27T03:28:49.709Z,87.82
2023-04-27T03:29:49.684Z,87.47
2023-04-27T03:30:49.675Z,87.88
2023-04-27T03:31:49.701Z,87.41
2023-04-27T03:32:49.703Z,87.93
2023-04-27T03:33:49.653Z,87.68
2023-04-27T03:34:49.648Z,87.93
2023-04-27T03:35:50.344Z,88.24
2023-04-27T03:36:50.361Z,88.45
2023-04-27T03:37:50.385Z,88.45
2023-04-27T03:38:49.660Z,88.45
2023-04-27T03:39:49.606Z,87.82
2023-04-27T03:40:49.608Z,87.93
2023-04-27T03:41:49.651Z,88.03
2023-04-27T03:42:49.637Z,88.03
2023-04-27T03:43:49.576Z,87.93
2023-04-27T03:44:49.602Z,88.55
2023-04-27T03:45:49.632Z,87.82
2023-04-27T04:02:09.143Z,89.21
2023-04-27T04:03:09.197Z,89.31
2023-04-27T04:04:09.209Z,88.48
2023-04-27T04:05:09.099Z,88.79
2023-04-27T04:06:10.326Z,89.31
2023-04-27T04:07:10.183Z,88.65
2023-04-27T04:08:10.179Z,88.79
2023-04-27T04:09:10.164Z,88.28
2023-04-27T04:10:10.225Z,88.48
2023-04-27T04:11:10.182Z,88.13
2023-04-27T04:12:10.204Z,88.03
2023-04-27T04:13:10.178Z,88.13
2023-04-27T04:14:10.157Z,88.76
2023-04-27T04:15:11.320Z,87.57
2023-04-27T04:16:10.244Z,88.40
2023-04-27T04:17:10.123Z,88.51
2023-04-27T04:18:10.215Z,87.68
2023-04-27T04:19:10.131Z,88.09
2023-04-27T04:20:10.093Z,88.03
2023-04-27T04:21:10.135Z,87.82
2023-04-27T04:22:10.120Z,87.93
2023-04-27T04:23:10.086Z,88.96
2023-04-27T04:24:10.079Z,88.61
2023-04-27T04:25:10.079Z,88.55
2023-04-27T04:26:10.103Z,88.96
2023-04-27T04:27:10.095Z,88.61
2023-04-27T04:28:10.078Z,88.96
2023-04-27T04:29:11.093Z,88.65
2023-04-27T04:30:11.867Z,89.38
2023-04-27T04:31:10.037Z,88.65
2023-04-27T04:32:10.031Z,88.65
2023-04-27T04:33:10.004Z,88.61
2023-04-27T04:34:10.072Z,88.76
2023-04-27T04:35:10.021Z,87.99
2023-04-27T04:36:10.004Z,87.68
2023-04-27T04:37:09.971Z,87.68
2023-04-27T04:38:09.984Z,88.55
2023-04-27T04:39:09.970Z,87.88
2023-04-27T04:40:09.986Z,87.68
2023-04-27T04:41:09.990Z,87.88
2023-04-27T04:42:09.941Z,87.88
2023-04-27T04:43:09.950Z,87.37
2023-04-27T04:44:09.921Z,87.16
2023-04-27T04:45:09.933Z,87.78
2023-04-27T04:46:09.947Z,87.78
2023-04-27T04:47:09.922Z,87.78
2023-04-27T04:48:09.890Z,87.99
2023-04-27T04:49:09.901Z,87.12
2023-04-27T04:50:09.892Z,87.64
2023-04-27T04:51:09.898Z,87.68
2023-04-27T04:52:09.924Z,87.64
2023-04-27T04:53:09.878Z,86.81
2023-04-27T04:54:09.890Z,86.91
2023-04-27T04:55:09.903Z,87.43
2023-04-27T04:56:09.884Z,87.02
2023-04-27T04:57:09.867Z,87.33
2023-04-27T04:58:09.873Z,87.74
2023-04-27T04:59:11.920Z,87.43
2023-04-27T05:00:10.851Z,87.43
2023-04-27T05:01:09.886Z,87.64
2023-04-27T05:02:09.849Z,87.43
2023-04-27T05:03:10.040Z,87.43
2023-04-27T05:04:09.978Z,87.81
2023-04-27T05:05:09.818Z,87.70
2023-04-27T05:06:09.770Z,87.60
2023-04-27T05:07:09.951Z,86.88
2023-04-27T05:08:10.742Z,86.98
2023-04-27T05:09:09.729Z,87.12
2023-04-27T05:10:09.732Z,86.91
2023-04-27T05:11:09.723Z,87.12
2023-04-27T05:12:09.708Z,87.02
2023-04-27T05:13:09.685Z,87.85
2023-04-27T05:14:09.710Z,87.85
2023-04-27T05:15:09.707Z,87.43
2023-04-27T05:16:09.749Z,87.33
2023-04-27T05:17:09.717Z,87.54
2023-04-27T05:18:09.806Z,87.70
2023-04-27T05:19:09.657Z,86.67
2023-04-27T05:20:09.637Z,86.36
2023-04-27T05:21:09.645Z,86.05
2023-04-27T05:22:09.648Z,85.74
2023-04-27T05:23:09.666Z,85.84
2023-04-27T05:24:09.629Z,85.94
2023-04-27T05:25:09.616Z,85.84
2023-04-27T05:26:09.600Z,85.84
2023-04-27T05:27:09.631Z,86.67
2023-04-27T05:28:09.629Z,86.36
2023-04-27T05:29:09.630Z,86.15
2023-04-27T05:30:09.578Z,86.25
2023-04-27T05:31:09.631Z,87.18
2023-04-27T05:32:09.695Z,86.98
2023-04-27T05:33:09.663Z,86.67
2023-04-27T05:34:09.593Z,85.49
2023-04-27T05:35:09.539Z,86.01
2023-04-27T05:36:09.561Z,85.62
2023-04-27T05:37:09.540Z,83.83
2023-04-27T05:38:09.537Z,84.03
2023-04-27T05:39:09.576Z,83.93
2023-04-27T05:40:09.588Z,83.72
2023-04-27T05:41:09.549Z,83.06
2023-04-27T05:42:09.545Z,82.14
2023-04-27T05:43:09.484Z,81.82
2023-04-27T05:44:09.484Z,81.51
2023-04-27T05:45:09.506Z,81.58
2023-04-27T05:46:09.494Z,81.23
2023-04-27T05:47:09.454Z,79.65
2023-04-27T05:48:09.437Z,78.41
2023-04-27T05:49:09.461Z,76.14
2023-04-27T05:50:09.469Z,74.26
2023-04-27T05:51:09.433Z,71.73
2023-04-27T05:52:09.422Z,69.82
2023-04-27T05:53:09.407Z,68.86
2023-04-27T05:54:09.410Z,70.12
2023-04-27T05:55:10.325Z,72.99
2023-04-27T05:56:09.412Z,74.33
2023-04-27T05:57:09.377Z,74.87
2023-04-27T05:58:09.540Z,75.04
2023-04-27T05:59:09.388Z,74.02
2023-04-27T06:00:09.387Z,74.87
2023-04-27T06:01:09.362Z,74.26
2023-04-27T06:02:09.368Z,75.01
2023-04-27T06:03:09.522Z,75.25
2023-04-27T06:04:09.498Z,76.39
2023-04-27T06:05:09.373Z,75.67
2023-04-27T06:06:09.306Z,75.39
2023-04-27T06:07:10.271Z,76.76
2023-04-27T06:08:09.309Z,77.69
2023-04-27T06:09:09.337Z,77.48
2023-04-27T06:10:09.819Z,77.73
2023-04-27T06:11:09.307Z,77.80
2023-04-27T06:12:10.276Z,76.63
2023-04-27T06:13:09.911Z,76.25
2023-04-27T06:14:09.300Z,73.74
2023-04-27T06:15:09.268Z,71.59
2023-04-27T06:16:09.264Z,69.51
2023-04-27T06:17:09.230Z,70.15
2023-04-27T06:18:09.240Z,70.26
2023-04-27T06:19:09.428Z,68.83
2023-04-27T06:20:09.209Z,66.91
2023-04-27T06:21:09.191Z,68.51
2023-04-27T06:22:09.181Z,69.37
2023-04-27T06:23:09.238Z,70.84
2023-04-27T06:24:09.196Z,71.69
2023-04-27T06:25:09.181Z,70.73
2023-04-27T06:26:09.186Z,70.42
2023-04-27T06:27:09.198Z,70.12
2023-04-27T06:28:09.153Z,70.25
2023-04-27T06:29:09.163Z,70.25
2023-04-27T06:30:09.666Z,70.36
2023-04-27T06:31:09.175Z,70.25
2023-04-27T06:32:09.149Z,71.17
2023-04-27T06:33:09.206Z,70.80
2023-04-27T06:34:09.115Z,69.67
2023-04-27T06:35:09.141Z,70.66
2023-04-27T06:36:09.137Z,71.00
2023-04-27T06:37:09.827Z,71.55
2023-04-27T06:38:09.078Z,72.75
2023-04-27T06:39:09.101Z,73.36
2023-04-27T06:40:09.065Z,72.54
2023-04-27T06:41:09.032Z,72.64
2023-04-27T06:42:09.130Z,73.02
2023-04-27T06:43:09.055Z,73.09
2023-04-27T06:44:09.033Z,72.03
2023-04-27T06:45:09.012Z,72.44
2023-04-27T06:46:09.053Z,70.36
2023-04-27T06:47:09.043Z,67.77
2023-04-27T06:48:08.998Z,66.51
2023-04-27T06:49:08.993Z,65.28
2023-04-27T06:50:08.989Z,64.01
2023-04-27T06:51:08.993Z,64.28
2023-04-27T06:52:09.024Z,65.84
2023-04-27T06:53:08.960Z,65.80
2023-04-27T06:54:08.967Z,66.04
2023-04-27T06:55:08.938Z,66.45
2023-04-27T06:56:08.914Z,67.17
2023-04-27T06:57:08.941Z,66.28
2023-04-27T06:58:08.927Z,67.07
2023-04-27T06:59:09.418Z,67.07
2023-04-27T07:00:08.895Z,66.45
2023-04-27T07:01:08.931Z,67.27
2023-04-27T07:02:08.871Z,66.28
2023-04-27T07:03:09.034Z,67.85
2023-04-27T07:04:09.046Z,67.75
2023-04-27T07:05:08.905Z,69.05
2023-04-27T07:06:08.869Z,67.27
2023-04-27T07:07:08.857Z,65.37
2023-04-27T07:08:09.264Z,64.62
2023-04-27T07:09:19.870Z,63.78
2023-04-27T07:10:10.837Z,64.36
2023-04-27T07:11:08.835Z,62.62
2023-04-27T07:12:08.826Z,63.81
2023-04-27T07:13:09.538Z,64.01
2023-04-27T07:14:09.786Z,64.86
2023-04-27T07:15:08.811Z,65.54
2023-04-27T07:16:08.821Z,64.73
2023-04-27T07:17:08.804Z,63.81
2023-04-27T07:18:08.875Z,64.42
2023-04-27T07:19:08.739Z,62.39
2023-04-27T07:20:08.823Z,61.54
2023-04-27T07:21:08.730Z,60.53
2023-04-27T07:22:08.853Z,58.78
2023-04-27T07:23:08.755Z,59.80
2023-04-27T07:24:08.705Z,57.47
2023-04-27T07:25:08.731Z,56.42
2023-04-27T07:26:08.711Z,55.79
2023-04-27T07:27:08.751Z,55.99
2023-04-27T07:28:08.717Z,55.89
2023-04-27T07:29:23.018Z,57.17
2023-04-27T07:30:10.698Z,56.88
2023-04-27T07:31:08.689Z,57.12
2023-04-27T07:32:09.092Z,57.75
2023-04-27T07:33:08.706Z,57.50
2023-04-27T07:34:08.644Z,57.37
2023-04-27T07:35:08.657Z,60.03
2023-04-27T07:36:08.608Z,60.52
2023-04-27T07:37:09.353Z,60.08
2023-04-27T07:38:08.610Z,57.91
2023-04-27T07:39:08.620Z,57.81
2023-04-27T07:40:08.585Z,57.24
2023-04-27T07:41:08.570Z,56.73
2023-04-27T07:42:08.596Z,56.78
2023-04-27T07:43:08.564Z,55.15
2023-04-27T07:44:08.569Z,55.20
2023-04-27T07:45:08.551Z,56.42
2023-04-27T07:46:40.515Z,54.49
2023-04-27T07:47:08.541Z,53.14
2023-04-27T07:48:08.607Z,52.81
2023-04-27T07:49:08.517Z,52.48
2023-04-27T07:50:08.520Z,53.02
2023-04-27T07:51:08.512Z,53.32
2023-04-27T07:52:08.517Z,53.17
2023-04-27T07:53:08.490Z,51.44
2023-04-27T07:54:08.479Z,51.37
2023-04-27T07:55:08.470Z,51.59
2023-04-27T07:56:08.471Z,53.91
2023-04-27T07:57:08.455Z,51.21
2023-04-27T07:58:08.451Z,52.33
2023-04-27T07:59:08.460Z,55.15
2023-04-27T08:00:08.425Z,54.79
2023-04-27T08:01:08.415Z,52.97
2023-04-27T08:02:19.036Z,51.39
2023-04-27T08:03:10.554Z,49.55
2023-04-27T08:04:08.633Z,49.22
2023-04-27T08:05:08.796Z,48.83
2023-04-27T08:06:08.813Z,50.84
2023-04-27T08:07:08.807Z,51.37
2023-04-27T08:08:08.976Z,49.89
2023-04-27T08:09:08.377Z,53.34
2023-04-27T08:10:08.346Z,52.48
2023-04-27T08:11:08.428Z,50.73
2023-04-27T08:12:08.335Z,49.06
2023-04-27T08:13:08.309Z,49.22
2023-04-27T08:14:08.427Z,47.58
2023-04-27T08:15:08.340Z,46.98
2023-04-27T08:16:08.332Z,46.03
2023-04-27T08:17:08.328Z,44.90
2023-04-27T08:18:08.307Z,45.32
2023-04-27T08:19:08.305Z,45.29
2023-04-27T08:20:08.297Z,46.84
2023-04-27T08:21:08.272Z,45.69
2023-04-27T08:22:08.283Z,45.75
2023-04-27T08:23:08.246Z,46.92
2023-04-27T08:24:08.251Z,46.79
2023-04-27T08:25:08.270Z,49.27
2023-04-27T08:26:08.233Z,47.27
2023-04-27T08:27:08.222Z,48.18
2023-04-27T08:28:08.255Z,47.33
2023-04-27T08:29:15.785Z,46.96
2023-04-27T08:30:10.246Z,45.89
2023-04-27T08:31:08.249Z,43.91
2023-04-27T08:32:08.206Z,46.28
2023-04-27T08:33:08.219Z,49.28
2023-04-27T08:34:08.187Z,51.46
2023-04-27T08:35:08.174Z,50.81
2023-04-27T08:36:08.319Z,50.73
2023-04-27T08:37:08.148Z,50.48
2023-04-27T08:38:08.161Z,49.27
2023-04-27T08:39:08.161Z,48.10
2023-04-27T08:40:08.194Z,46.92
2023-04-27T08:41:20.776Z,46.80
2023-04-27T08:42:10.134Z,47.20
2023-04-27T08:43:08.102Z,47.20
2023-04-27T08:44:08.918Z,46.96
2023-04-27T08:45:08.094Z,45.50
2023-04-27T08:46:08.073Z,45.85
2023-04-27T08:47:08.042Z,49.11
2023-04-27T08:48:08.151Z,48.77
2023-04-27T08:49:08.198Z,48.44
2023-04-27T08:50:08.083Z,48.08
2023-04-27T08:51:08.052Z,48.74
2023-04-27T08:52:08.085Z,49.41
2023-04-27T08:53:08.026Z,49.27
2023-04-27T08:54:08.019Z,48.69
2023-04-27T08:55:08.000Z,47.95
2023-04-27T08:56:08.017Z,48.99
2023-04-27T08:57:07.997Z,48.96
2023-04-27T08:58:08.083Z,49.32
2023-04-27T08:59:07.972Z,47.30
2023-04-27T09:00:07.959Z,47.39
2023-04-27T09:01:07.998Z,47.03
2023-04-27T09:02:08.173Z,48.43
2023-04-27T09:03:08.047Z,48.69
2023-04-27T09:04:08.207Z,47.88
2023-04-27T09:05:08.033Z,47.11
2023-04-27T09:06:08.089Z,47.60
2023-04-27T09:07:08.924Z,47.15
2023-04-27T09:08:07.998Z,45.71
2023-04-27T09:09:07.913Z,45.59
2023-04-27T09:10:07.951Z,45.30
2023-04-27T09:11:07.916Z,44.25
2023-04-27T09:12:07.894Z,43.79
2023-04-27T09:13:07.873Z,43.08
2023-04-27T09:14:07.896Z,45.77
2023-04-27T09:15:07.874Z,45.69
2023-04-27T09:16:07.894Z,46.66
2023-04-27T09:17:07.841Z,45.46
2023-04-27T09:18:08.436Z,44.93
2023-04-27T09:19:07.843Z,43.59
2023-04-27T09:20:07.833Z,41.79
2023-04-27T09:21:07.804Z,44.33
2023-04-27T09:22:07.823Z,44.11
2023-04-27T09:23:07.809Z,47.33
2023-04-27T09:24:07.813Z,50.48
2023-04-27T09:25:07.784Z,49.24
2023-04-27T09:26:07.759Z,49.02
2023-04-27T09:27:07.797Z,46.07
2023-04-27T09:28:07.750Z,44.71
2023-04-27T09:29:07.755Z,45.48
2023-04-27T09:30:07.810Z,43.89
2023-04-27T09:31:07.764Z,43.34
2023-04-27T09:32:07.750Z,43.22
2023-04-27T09:33:07.799Z,43.12
2023-04-27T09:34:07.697Z,43.42
2023-04-27T09:35:07.981Z,43.24
2023-04-27T09:36:09.356Z,41.82
2023-04-27T09:37:07.714Z,40.79
2023-04-27T09:38:07.742Z,41.59
2023-04-27T09:39:07.717Z,42.05
2023-04-27T09:40:07.806Z,43.28
2023-04-27T09:41:07.718Z,41.91
2023-04-27T09:42:07.760Z,42.72
2023-04-27T09:43:07.645Z,41.53
2023-04-27T09:44:08.631Z,43.29
2023-04-27T09:45:07.635Z,45.10
2023-04-27T09:46:07.822Z,44.48
2023-04-27T09:47:07.689Z,44.94
2023-04-27T09:48:07.666Z,43.97
2023-04-27T09:49:07.590Z,42.10
2023-04-27T09:50:07.586Z,41.17
2023-04-27T09:51:07.611Z,40.97
2023-04-27T09:52:07.646Z,41.61
2023-04-27T09:53:07.613Z,41.79
2023-04-27T09:54:07.571Z,44.48
2023-04-27T09:55:07.574Z,44.35
2023-04-27T09:56:07.542Z,43.26
2023-04-27T09:57:07.582Z,43.43
2023-04-27T09:58:07.560Z,43.20
2023-04-27T09:59:07.535Z,46.01
2023-04-27T10:00:07.530Z,47.09
2023-04-27T10:01:07.637Z,47.87
2023-04-27T10:02:20.860Z,47.38
2023-04-27T10:03:09.613Z,48.24
2023-04-27T10:04:07.755Z,48.93
2023-04-27T10:05:07.515Z,49.33
2023-04-27T10:06:07.470Z,49.26
2023-04-27T10:07:07.450Z,49.56
2023-04-27T10:08:07.488Z,48.50
2023-04-27T10:09:07.487Z,48.05
2023-04-27T10:10:07.480Z,49.04
2023-04-27T10:11:07.761Z,46.46
2023-04-27T10:12:07.492Z,46.59
2023-04-27T10:13:07.448Z,47.22
2023-04-27T10:14:07.455Z,47.39
2023-04-27T10:15:07.448Z,46.04
2023-04-27T10:16:07.469Z,45.75
2023-04-27T10:17:07.461Z,46.06
2023-04-27T10:18:07.498Z,44.54
2023-04-27T10:19:07.353Z,45.50
2023-04-27T10:20:08.353Z,44.42
2023-04-27T10:21:07.392Z,44.79
2023-04-27T10:22:07.343Z,43.08
2023-04-27T10:23:07.359Z,44.15
2023-04-27T10:24:07.331Z,41.45
2023-04-27T10:25:07.334Z,41.09
2023-04-27T10:26:07.356Z,39.23
2023-04-27T10:27:07.301Z,39.21
2023-04-27T10:28:07.285Z,39.37
2023-04-27T10:29:07.318Z,37.46
2023-04-27T10:30:07.299Z,38.15
2023-04-27T10:31:07.322Z,38.39
2023-04-27T10:32:07.264Z,38.57
2023-04-27T10:33:07.364Z,38.89
2023-04-27T10:34:07.295Z,40.08
2023-04-27T10:35:07.241Z,41.75
2023-04-27T10:36:07.246Z,41.83
2023-04-27T10:37:07.253Z,39.80
2023-04-27T10:38:07.251Z,40.33
2023-04-27T10:39:07.186Z,39.82
2023-04-27T10:40:08.188Z,40.34
2023-04-27T10:41:07.187Z,39.98
2023-04-27T10:42:07.172Z,41.45
2023-04-27T10:43:07.204Z,42.96
2023-04-27T10:44:07.206Z,42.19
2023-04-27T10:45:07.175Z,43.99
2023-04-27T10:46:07.196Z,43.55
2023-04-27T10:47:07.197Z,42.66
2023-04-27T10:48:07.269Z,41.55
2023-04-27T10:49:07.139Z,41.03
2023-04-27T10:50:07.173Z,41.22
2023-04-27T10:51:07.125Z,42.13
2023-04-27T10:52:07.120Z,45.23
2023-04-27T10:53:07.144Z,43.91
2023-04-27T10:54:07.101Z,42.24
2023-04-27T10:55:07.089Z,42.01
2023-04-27T10:56:07.292Z,42.86
2023-04-27T10:57:07.085Z,41.61
2023-04-27T10:58:07.076Z,42.03
2023-04-27T10:59:07.063Z,41.99
2023-04-27T11:00:08.030Z,41.23
2023-04-27T11:01:07.091Z,41.57
2023-04-27T11:02:07.072Z,41.36
2023-04-27T11:03:07.138Z,42.82
2023-04-27T11:04:07.022Z,43.34
2023-04-27T11:05:07.158Z,44.60
2023-04-27T11:06:07.063Z,44.82
2023-04-27T11:07:07.004Z,45.96
2023-04-27T11:08:07.049Z,45.39
2023-04-27T11:09:07.037Z,44.25
2023-04-27T11:10:06.974Z,45.06
2023-04-27T11:11:06.987Z,45.18
2023-04-27T11:12:06.971Z,45.59
2023-04-27T11:13:07.014Z,45.08
2023-04-27T11:14:06.976Z,45.33
2023-04-27T11:15:07.025Z,45.35
2023-04-27T11:16:07.031Z,46.10
2023-04-27T11:17:06.914Z,46.48
2023-04-27T11:18:07.579Z,45.12
2023-04-27T11:19:06.999Z,45.33
2023-04-27T11:20:06.906Z,45.35
2023-04-27T11:21:06.915Z,44.64
2023-04-27T11:22:06.881Z,46.30
2023-04-27T11:23:06.868Z,47.70
2023-04-27T11:24:06.896Z,46.12
2023-04-27T11:25:06.844Z,45.53
2023-04-27T11:26:06.849Z,42.15
2023-04-27T11:27:06.865Z,43.26
2023-04-27T11:28:06.876Z,43.40
2023-04-27T11:29:06.832Z,43.43
2023-04-27T11:30:06.817Z,44.51
2023-04-27T11:31:06.875Z,44.19
2023-04-27T11:32:06.884Z,43.22
2023-04-27T11:33:06.811Z,41.06
2023-04-27T11:34:07.850Z,41.33
2023-04-27T11:35:06.767Z,40.56
2023-04-27T11:36:06.758Z,41.65
2023-04-27T11:37:17.805Z,40.61
2023-04-27T11:38:08.756Z,39.78
2023-04-27T11:39:06.808Z,39.80
2023-04-27T11:40:06.719Z,40.50
2023-04-27T11:41:07.883Z,39.98
2023-04-27T11:42:06.741Z,39.80
2023-04-27T11:43:06.708Z,40.55
2023-04-27T11:44:06.758Z,41.25
2023-04-27T11:45:06.728Z,41.99
2023-04-27T11:46:06.667Z,41.89
2023-04-27T11:47:06.759Z,42.03
2023-04-27T11:48:06.763Z,43.38
2023-04-27T11:49:06.738Z,44.42
2023-04-27T11:50:06.703Z,44.59
2023-04-27T11:51:06.658Z,43.26
2023-04-27T11:52:06.656Z,43.18
2023-04-27T11:53:06.658Z,45.26
2023-04-27T11:54:06.642Z,46.16
2023-04-27T11:55:06.636Z,47.96
2023-04-27T11:56:06.597Z,45.39
2023-04-27T11:57:06.602Z,44.84
2023-04-27T11:58:06.607Z,44.62
2023-04-27T11:59:06.654Z,45.59
2023-04-27T12:00:06.563Z,47.30
2023-04-27T12:01:06.614Z,47.46
2023-04-27T12:02:06.667Z,48.99
2023-04-27T12:03:06.739Z,48.76
2023-04-27T12:04:07.737Z,47.92
2023-04-27T12:05:06.865Z,47.90
2023-04-27T12:06:27.295Z,47.42
2023-04-27T12:07:08.502Z,46.89
2023-04-27T12:08:06.544Z,47.11
2023-04-27T12:09:06.517Z,46.97
2023-04-27T12:10:07.458Z,45.61
2023-04-27T12:11:06.497Z,46.09
2023-04-27T12:12:06.493Z,44.78
2023-04-27T12:13:06.495Z,45.35
2023-04-27T12:14:06.469Z,45.42
2023-04-27T12:15:06.444Z,46.22
2023-04-27T12:16:06.451Z,47.78
2023-04-27T12:17:06.509Z,45.59
2023-04-27T12:18:06.582Z,45.14
2023-04-27T12:19:06.441Z,42.88
2023-04-27T12:20:06.468Z,41.42
2023-04-27T12:21:08.245Z,41.20
2023-04-27T12:22:06.410Z,40.56
2023-04-27T12:23:06.512Z,39.74
2023-04-27T12:24:06.433Z,39.84
2023-04-27T12:25:06.446Z,41.15
2023-04-27T12:26:06.375Z,41.75
2023-04-27T12:27:06.377Z,41.87
2023-04-27T12:28:06.366Z,40.42
2023-04-27T12:29:06.379Z,41.27
2023-04-27T12:30:06.390Z,40.04
2023-04-27T12:31:06.377Z,39.96
2023-04-27T12:32:06.332Z,40.14
2023-04-27T12:33:06.337Z,40.04
2023-04-27T12:34:06.340Z,40.92
2023-04-27T12:35:06.377Z,41.27
2023-04-27T12:36:06.356Z,41.05
2023-04-27T12:37:06.289Z,40.24
2023-04-27T12:38:06.290Z,41.25
2023-04-27T12:39:06.359Z,41.25
2023-04-27T12:40:06.323Z,41.25
2023-04-27T12:41:06.272Z,39.84
2023-04-27T12:42:06.259Z,39.84
2023-04-27T12:43:06.302Z,39.64
2023-04-27T12:44:06.292Z,41.05
2023-04-27T12:45:06.291Z,39.72
2023-04-27T12:46:06.464Z,41.17
2023-04-27T12:47:06.263Z,41.27
2023-04-27T12:48:06.367Z,40.36
2023-04-27T12:49:06.246Z,41.49
2023-04-27T12:50:06.308Z,41.47
2023-04-27T12:51:06.232Z,41.39
2023-04-27T12:52:06.210Z,42.41
2023-04-27T12:53:06.194Z,42.11
2023-04-27T12:54:06.186Z,42.21
2023-04-27T12:55:06.183Z,41.59
2023-04-27T12:56:06.181Z,42.10
2023-04-27T12:57:06.169Z,41.77
2023-04-27T12:58:06.155Z,41.37
2023-04-27T12:59:06.201Z,40.33
2023-04-27T13:00:06.143Z,39.90
2023-04-27T13:01:06.139Z,40.26
2023-04-27T13:02:06.161Z,41.39
2023-04-27T13:03:06.241Z,41.73
2023-04-27T13:04:06.280Z,42.66
2023-04-27T13:05:06.262Z,43.46
2023-04-27T13:06:06.124Z,42.05
2023-04-27T13:07:06.091Z,42.19
2023-04-27T13:08:06.112Z,42.29